sensor_id;sensor_type;location;lat;lon;timestamp;temperature;humidity
72865;DHT22;61000;48.120;11.548;2023-11-21T00:00:13;7.60;99.90
72865;DHT22;61000;48.120;11.548;2023-11-21T00:02:41;7.50;99.90
72865;DHT22;61000;48.120;11.548;2023-11-21T00:05:08;7.50;99.90
72865;DHT22;61000;48.120;11.548;2023-11-21T00:07:37;7.50;99.90
72865;DHT22;61000;48.120;11.548;2023-11-21T00:10:04;7.50;99.90
72865;DHT22;61000;48.120;11.548;2023-11-21T00:12:31;7.50;99.90
72865;DHT22;61000;48.120;11.548;2023-11-21T00:14:59;7.40;99.90
72865;DHT22;61000;48.120;11.548;2023-11-21T00:17:26;7.30;99.90
72865;DHT22;61000;48.120;11.548;2023-11-21T00:19:52;7.30;99.90
72865;DHT22;61000;48.120;11.548;2023-11-21T00:22:20;7.30;99.90
72865;DHT22;61000;48.120;11.548;2023-11-21T00:24:48;7.20;99.90
72865;DHT22;61000;48.120;11.548;2023-11-21T00:27:15;7.20;99.90
72865;DHT22;61000;48.120;11.548;2023-11-21T00:29:42;7.20;99.90
72865;DHT22;61000;48.120;11.548;2023-11-21T00:32:09;7.20;99.90
72865;DHT22;61000;48.120;11.548;2023-11-21T00:34:37;7.20;99.90
72865;DHT22;61000;48.120;11.548;2023-11-21T00:37:04;7.20;99.90
72865;DHT22;61000;48.120;11.548;2023-11-21T00:39:31;7.20;99.90
72865;DHT22;61000;48.120;11.548;2023-11-21T00:42:00;7.20;99.90
72865;DHT22;61000;48.120;11.548;2023-11-21T00:44:27;7.20;99.90
72865;DHT22;61000;48.120;11.548;2023-11-21T00:46:54;7.20;99.90
72865;DHT22;61000;48.120;11.548;2023-11-21T00:49:21;7.20;99.90
72865;DHT22;61000;48.120;11.548;2023-11-21T00:51:49;7.20;99.90
72865;DHT22;61000;48.120;11.548;2023-11-21T00:54:16;7.20;99.90
72865;DHT22;61000;48.120;11.548;2023-11-21T00:56:43;7.20;99.90
72865;DHT22;61000;48.120;11.548;2023-11-21T00:59:14;7.20;99.90
72865;DHT22;61000;48.120;11.548;2023-11-21T01:01:41;7.20;99.90
72865;DHT22;61000;48.120;11.548;2023-11-21T01:04:08;7.20;99.90
72865;DHT22;61000;48.120;11.548;2023-11-21T01:06:35;7.20;99.90
72865;DHT22;61000;48.120;11.548;2023-11-21T01:09:02;7.30;99.90
72865;DHT22;61000;48.120;11.548;2023-11-21T01:11:33;7.20;99.90
72865;DHT22;61000;48.120;11.548;2023-11-21T01:14:02;7.20;99.90
72865;DHT22;61000;48.120;11.548;2023-11-21T01:16:32;7.20;99.90
72865;DHT22;61000;48.120;11.548;2023-11-21T01:18:59;7.20;99.90
72865;DHT22;61000;48.120;11.548;2023-11-21T01:21:27;7.20;99.90
72865;DHT22;61000;48.120;11.548;2023-11-21T01:23:54;7.10;99.90
72865;DHT22;61000;48.120;11.548;2023-11-21T01:26:21;7.10;99.90
72865;DHT22;61000;48.120;11.548;2023-11-21T01:28:48;7.10;99.90
72865;DHT22;61000;48.120;11.548;2023-11-21T01:31:15;7.10;99.90
72865;DHT22;61000;48.120;11.548;2023-11-21T01:33:43;7.00;99.90
72865;DHT22;61000;48.120;11.548;2023-11-21T01:36:10;7.10;99.90
72865;DHT22;61000;48.120;11.548;2023-11-21T01:38:37;7.00;99.90
72865;DHT22;61000;48.120;11.548;2023-11-21T01:41:05;7.00;99.90
72865;DHT22;61000;48.120;11.548;2023-11-21T01:43:32;7.00;99.90
72865;DHT22;61000;48.120;11.548;2023-11-21T01:45:59;7.00;99.90
72865;DHT22;61000;48.120;11.548;2023-11-21T01:48:27;7.00;99.90
72865;DHT22;61000;48.120;11.548;2023-11-21T01:50:55;7.00;99.90
72865;DHT22;61000;48.120;11.548;2023-11-21T01:53:24;7.00;99.90
72865;DHT22;61000;48.120;11.548;2023-11-21T01:55:51;7.00;99.90
72865;DHT22;61000;48.120;11.548;2023-11-21T01:58:19;7.00;99.90
72865;DHT22;61000;48.120;11.548;2023-11-21T02:00:47;7.00;99.90
72865;DHT22;61000;48.120;11.548;2023-11-21T02:03:16;7.00;99.90
72865;DHT22;61000;48.120;11.548;2023-11-21T02:05:43;7.10;99.90
72865;DHT22;61000;48.120;11.548;2023-11-21T02:08:11;7.10;99.90
72865;DHT22;61000;48.120;11.548;2023-11-21T02:10:38;7.20;99.90
72865;DHT22;61000;48.120;11.548;2023-11-21T02:13:06;7.20;99.90
72865;DHT22;61000;48.120;11.548;2023-11-21T02:15:33;7.20;99.90
72865;DHT22;61000;48.120;11.548;2023-11-21T02:18:00;7.30;99.90
72865;DHT22;61000;48.120;11.548;2023-11-21T02:20:28;7.30;99.90
72865;DHT22;61000;48.120;11.548;2023-11-21T02:22:57;7.30;99.90
72865;DHT22;61000;48.120;11.548;2023-11-21T02:25:25;7.40;99.90
72865;DHT22;61000;48.120;11.548;2023-11-21T02:27:53;7.40;99.90
72865;DHT22;61000;48.120;11.548;2023-11-21T02:30:20;7.40;99.90
72865;DHT22;61000;48.120;11.548;2023-11-21T02:32:47;7.40;99.90
72865;DHT22;61000;48.120;11.548;2023-11-21T02:35:15;7.40;99.90
72865;DHT22;61000;48.120;11.548;2023-11-21T02:37:42;7.30;99.90
72865;DHT22;61000;48.120;11.548;2023-11-21T02:40:11;7.30;99.90
72865;DHT22;61000;48.120;11.548;2023-11-21T02:42:39;7.20;99.90
72865;DHT22;61000;48.120;11.548;2023-11-21T02:45:07;7.10;99.90
72865;DHT22;61000;48.120;11.548;2023-11-21T02:47:34;7.10;99.90
72865;DHT22;61000;48.120;11.548;2023-11-21T02:50:01;7.10;99.90
72865;DHT22;61000;48.120;11.548;2023-11-21T02:52:27;7.10;99.90
72865;DHT22;61000;48.120;11.548;2023-11-21T02:54:54;7.00;99.90
72865;DHT22;61000;48.120;11.548;2023-11-21T02:57:22;7.00;99.90
72865;DHT22;61000;48.120;11.548;2023-11-21T02:59:48;7.00;99.90
72865;DHT22;61000;48.120;11.548;2023-11-21T03:02:15;7.00;99.90
72865;DHT22;61000;48.120;11.548;2023-11-21T03:04:43;7.00;99.90
72865;DHT22;61000;48.120;11.548;2023-11-21T03:07:10;7.00;99.90
72865;DHT22;61000;48.120;11.548;2023-11-21T03:09:37;7.00;99.90
72865;DHT22;61000;48.120;11.548;2023-11-21T03:12:05;7.00;99.90
72865;DHT22;61000;48.120;11.548;2023-11-21T03:14:33;7.00;99.90
72865;DHT22;61000;48.120;11.548;2023-11-21T03:17:00;6.90;99.90
72865;DHT22;61000;48.120;11.548;2023-11-21T03:19:27;6.90;99.90
72865;DHT22;61000;48.120;11.548;2023-11-21T03:21:54;6.90;99.90
72865;DHT22;61000;48.120;11.548;2023-11-21T03:24:21;6.90;99.90
72865;DHT22;61000;48.120;11.548;2023-11-21T03:26:48;6.90;99.90
72865;DHT22;61000;48.120;11.548;2023-11-21T03:29:17;6.90;99.90
72865;DHT22;61000;48.120;11.548;2023-11-21T03:31:45;7.00;99.90
72865;DHT22;61000;48.120;11.548;2023-11-21T03:34:15;7.00;99.90
72865;DHT22;61000;48.120;11.548;2023-11-21T03:36:43;7.00;99.90
72865;DHT22;61000;48.120;11.548;2023-11-21T03:39:12;7.00;99.90
72865;DHT22;61000;48.120;11.548;2023-11-21T03:41:39;7.00;99.90
72865;DHT22;61000;48.120;11.548;2023-11-21T03:44:06;7.00;99.90
72865;DHT22;61000;48.120;11.548;2023-11-21T03:46:33;7.00;99.90
72865;DHT22;61000;48.120;11.548;2023-11-21T03:49:01;7.00;99.90
72865;DHT22;61000;48.120;11.548;2023-11-21T03:51:28;7.00;99.90
72865;DHT22;61000;48.120;11.548;2023-11-21T03:53:55;7.00;99.90
72865;DHT22;61000;48.120;11.548;2023-11-21T03:56:22;7.00;99.90
72865;DHT22;61000;48.120;11.548;2023-11-21T03:58:49;6.90;99.90
72865;DHT22;61000;48.120;11.548;2023-11-21T04:01:20;7.00;99.90
72865;DHT22;61000;48.120;11.548;2023-11-21T04:03:48;6.90;99.90
72865;DHT22;61000;48.120;11.548;2023-11-21T04:06:17;7.00;99.90
72865;DHT22;61000;48.120;11.548;2023-11-21T04:08:44;6.90;99.90
72865;DHT22;61000;48.120;11.548;2023-11-21T04:11:11;6.90;99.90
72865;DHT22;61000;48.120;11.548;2023-11-21T04:13:38;6.90;99.90
72865;DHT22;61000;48.120;11.548;2023-11-21T04:16:06;6.90;99.90
72865;DHT22;61000;48.120;11.548;2023-11-21T04:18:33;6.90;99.90
72865;DHT22;61000;48.120;11.548;2023-11-21T04:21:00;6.90;99.90
72865;DHT22;61000;48.120;11.548;2023-11-21T04:23:29;6.90;99.90
72865;DHT22;61000;48.120;11.548;2023-11-21T04:25:57;6.90;99.90
72865;DHT22;61000;48.120;11.548;2023-11-21T04:28:24;6.90;99.90
72865;DHT22;61000;48.120;11.548;2023-11-21T04:30:51;6.90;99.90
72865;DHT22;61000;48.120;11.548;2023-11-21T04:33:18;7.00;99.90
72865;DHT22;61000;48.120;11.548;2023-11-21T04:35:45;7.00;99.90
72865;DHT22;61000;48.120;11.548;2023-11-21T04:38:12;7.00;99.90
72865;DHT22;61000;48.120;11.548;2023-11-21T04:40:40;7.10;99.90
72865;DHT22;61000;48.120;11.548;2023-11-21T04:43:07;7.10;99.90
72865;DHT22;61000;48.120;11.548;2023-11-21T04:45:34;7.10;99.90
72865;DHT22;61000;48.120;11.548;2023-11-21T04:48:01;7.10;99.90
72865;DHT22;61000;48.120;11.548;2023-11-21T04:50:28;7.10;99.90
72865;DHT22;61000;48.120;11.548;2023-11-21T04:52:55;7.10;99.90
72865;DHT22;61000;48.120;11.548;2023-11-21T04:55:22;7.10;99.90
72865;DHT22;61000;48.120;11.548;2023-11-21T04:57:50;7.10;99.90
72865;DHT22;61000;48.120;11.548;2023-11-21T05:00:17;7.10;99.90
72865;DHT22;61000;48.120;11.548;2023-11-21T05:02:44;7.10;99.90
72865;DHT22;61000;48.120;11.548;2023-11-21T05:05:11;7.00;99.90
72865;DHT22;61000;48.120;11.548;2023-11-21T05:07:39;7.10;99.90
72865;DHT22;61000;48.120;11.548;2023-11-21T05:10:07;7.00;99.90
72865;DHT22;61000;48.120;11.548;2023-11-21T05:12:37;7.00;99.90
72865;DHT22;61000;48.120;11.548;2023-11-21T05:15:07;7.00;99.90
72865;DHT22;61000;48.120;11.548;2023-11-21T05:17:35;7.00;99.90
72865;DHT22;61000;48.120;11.548;2023-11-21T05:20:03;7.00;99.90
72865;DHT22;61000;48.120;11.548;2023-11-21T05:22:30;7.00;99.90
72865;DHT22;61000;48.120;11.548;2023-11-21T05:24:57;6.90;99.90
72865;DHT22;61000;48.120;11.548;2023-11-21T05:27:24;6.90;99.90
72865;DHT22;61000;48.120;11.548;2023-11-21T05:29:51;6.90;99.90
72865;DHT22;61000;48.120;11.548;2023-11-21T05:32:20;6.90;99.90
72865;DHT22;61000;48.120;11.548;2023-11-21T05:34:46;6.90;99.90
72865;DHT22;61000;48.120;11.548;2023-11-21T05:37:13;6.90;99.90
72865;DHT22;61000;48.120;11.548;2023-11-21T05:39:40;6.90;99.90
72865;DHT22;61000;48.120;11.548;2023-11-21T05:42:07;6.90;99.90
72865;DHT22;61000;48.120;11.548;2023-11-21T05:44:34;6.90;99.90
72865;DHT22;61000;48.120;11.548;2023-11-21T05:47:01;6.90;99.90
72865;DHT22;61000;48.120;11.548;2023-11-21T05:49:30;6.90;99.90
72865;DHT22;61000;48.120;11.548;2023-11-21T05:51:58;7.00;99.90
72865;DHT22;61000;48.120;11.548;2023-11-21T05:54:25;7.00;99.90
72865;DHT22;61000;48.120;11.548;2023-11-21T05:56:52;7.00;99.90
72865;DHT22;61000;48.120;11.548;2023-11-21T05:59:19;7.00;99.90
72865;DHT22;61000;48.120;11.548;2023-11-21T06:01:46;7.00;99.90
72865;DHT22;61000;48.120;11.548;2023-11-21T06:04:13;7.00;99.90
72865;DHT22;61000;48.120;11.548;2023-11-21T06:06:41;6.90;99.90
72865;DHT22;61000;48.120;11.548;2023-11-21T06:09:08;6.90;99.90
72865;DHT22;61000;48.120;11.548;2023-11-21T06:11:35;6.90;99.90
72865;DHT22;61000;48.120;11.548;2023-11-21T06:14:02;6.90;99.90
72865;DHT22;61000;48.120;11.548;2023-11-21T06:16:29;6.90;99.90
72865;DHT22;61000;48.120;11.548;2023-11-21T06:18:56;6.80;99.90
72865;DHT22;61000;48.120;11.548;2023-11-21T06:21:23;6.90;99.90
72865;DHT22;61000;48.120;11.548;2023-11-21T06:23:51;6.80;99.90
72865;DHT22;61000;48.120;11.548;2023-11-21T06:26:18;6.90;99.90
72865;DHT22;61000;48.120;11.548;2023-11-21T06:28:46;6.90;99.90
72865;DHT22;61000;48.120;11.548;2023-11-21T06:31:12;6.90;99.90
72865;DHT22;61000;48.120;11.548;2023-11-21T06:33:39;6.90;99.90
72865;DHT22;61000;48.120;11.548;2023-11-21T06:36:07;6.90;99.90
72865;DHT22;61000;48.120;11.548;2023-11-21T06:38:36;6.90;99.90
72865;DHT22;61000;48.120;11.548;2023-11-21T06:41:05;6.90;99.90
72865;DHT22;61000;48.120;11.548;2023-11-21T06:43:33;6.90;99.90
72865;DHT22;61000;48.120;11.548;2023-11-21T06:46:00;6.90;99.90
72865;DHT22;61000;48.120;11.548;2023-11-21T06:48:27;6.90;99.90
72865;DHT22;61000;48.120;11.548;2023-11-21T06:50:55;6.90;99.90
72865;DHT22;61000;48.120;11.548;2023-11-21T06:53:22;6.90;99.90
72865;DHT22;61000;48.120;11.548;2023-11-21T06:55:50;7.00;99.90
72865;DHT22;61000;48.120;11.548;2023-11-21T06:58:18;7.00;99.90
72865;DHT22;61000;48.120;11.548;2023-11-21T07:00:45;7.00;99.90
72865;DHT22;61000;48.120;11.548;2023-11-21T07:03:14;7.00;99.90
72865;DHT22;61000;48.120;11.548;2023-11-21T07:05:41;7.00;99.90
72865;DHT22;61000;48.120;11.548;2023-11-21T07:08:07;7.00;99.90
72865;DHT22;61000;48.120;11.548;2023-11-21T07:10:35;7.00;99.90
72865;DHT22;61000;48.120;11.548;2023-11-21T07:13:02;7.00;99.90
72865;DHT22;61000;48.120;11.548;2023-11-21T07:15:30;7.00;99.90
72865;DHT22;61000;48.120;11.548;2023-11-21T07:17:58;7.00;99.90
72865;DHT22;61000;48.120;11.548;2023-11-21T07:20:25;7.00;99.90
72865;DHT22;61000;48.120;11.548;2023-11-21T07:22:52;7.00;99.90
72865;DHT22;61000;48.120;11.548;2023-11-21T07:25:19;7.00;99.90
72865;DHT22;61000;48.120;11.548;2023-11-21T07:27:47;7.00;99.90
72865;DHT22;61000;48.120;11.548;2023-11-21T07:30:15;7.00;99.90
72865;DHT22;61000;48.120;11.548;2023-11-21T07:32:43;7.00;99.90
72865;DHT22;61000;48.120;11.548;2023-11-21T07:35:13;7.00;99.90
72865;DHT22;61000;48.120;11.548;2023-11-21T07:37:40;7.00;99.90
72865;DHT22;61000;48.120;11.548;2023-11-21T07:40:08;7.10;99.90
72865;DHT22;61000;48.120;11.548;2023-11-21T07:42:37;7.10;99.90
72865;DHT22;61000;48.120;11.548;2023-11-21T07:45:05;7.10;99.90
72865;DHT22;61000;48.120;11.548;2023-11-21T07:47:32;7.20;99.90
72865;DHT22;61000;48.120;11.548;2023-11-21T07:50:02;7.10;99.90
72865;DHT22;61000;48.120;11.548;2023-11-21T07:52:29;7.20;99.90
72865;DHT22;61000;48.120;11.548;2023-11-21T07:54:56;7.20;99.90
72865;DHT22;61000;48.120;11.548;2023-11-21T07:57:23;7.30;99.90
72865;DHT22;61000;48.120;11.548;2023-11-21T07:59:50;7.30;99.90
72865;DHT22;61000;48.120;11.548;2023-11-21T08:02:19;7.30;99.90
72865;DHT22;61000;48.120;11.548;2023-11-21T08:04:46;7.30;99.90
72865;DHT22;61000;48.120;11.548;2023-11-21T08:07:17;7.40;99.90
72865;DHT22;61000;48.120;11.548;2023-11-21T08:09:44;7.40;99.90
72865;DHT22;61000;48.120;11.548;2023-11-21T08:12:12;7.40;99.90
72865;DHT22;61000;48.120;11.548;2023-11-21T08:14:40;7.50;99.90
72865;DHT22;61000;48.120;11.548;2023-11-21T08:17:08;7.50;99.90
72865;DHT22;61000;48.120;11.548;2023-11-21T08:19:35;7.50;99.90
72865;DHT22;61000;48.120;11.548;2023-11-21T08:22:03;7.60;99.90
72865;DHT22;61000;48.120;11.548;2023-11-21T08:24:31;7.50;99.90
72865;DHT22;61000;48.120;11.548;2023-11-21T08:26:58;7.60;99.90
72865;DHT22;61000;48.120;11.548;2023-11-21T08:29:25;7.60;99.90
72865;DHT22;61000;48.120;11.548;2023-11-21T08:31:52;7.60;99.90
72865;DHT22;61000;48.120;11.548;2023-11-21T08:34:19;7.50;99.90
72865;DHT22;61000;48.120;11.548;2023-11-21T08:36:46;7.50;99.90
72865;DHT22;61000;48.120;11.548;2023-11-21T08:39:13;7.60;99.90
72865;DHT22;61000;48.120;11.548;2023-11-21T08:41:43;7.60;99.90
72865;DHT22;61000;48.120;11.548;2023-11-21T08:44:10;7.60;99.90
72865;DHT22;61000;48.120;11.548;2023-11-21T08:46:37;7.70;99.90
72865;DHT22;61000;48.120;11.548;2023-11-21T08:49:05;7.80;99.90
72865;DHT22;61000;48.120;11.548;2023-11-21T08:51:32;7.80;99.90
72865;DHT22;61000;48.120;11.548;2023-11-21T08:53:59;7.80;99.90
72865;DHT22;61000;48.120;11.548;2023-11-21T08:56:30;8.00;99.90
72865;DHT22;61000;48.120;11.548;2023-11-21T08:58:58;8.00;99.90
72865;DHT22;61000;48.120;11.548;2023-11-21T09:01:27;8.00;99.90
72865;DHT22;61000;48.120;11.548;2023-11-21T09:03:54;8.10;99.90
72865;DHT22;61000;48.120;11.548;2023-11-21T09:06:21;8.20;99.90
72865;DHT22;61000;48.120;11.548;2023-11-21T09:08:48;8.30;99.90
72865;DHT22;61000;48.120;11.548;2023-11-21T09:11:15;8.30;99.90
72865;DHT22;61000;48.120;11.548;2023-11-21T09:13:41;8.30;99.90
72865;DHT22;61000;48.120;11.548;2023-11-21T09:16:10;8.40;99.90
72865;DHT22;61000;48.120;11.548;2023-11-21T09:18:36;8.50;99.90
72865;DHT22;61000;48.120;11.548;2023-11-21T09:21:04;8.40;99.90
72865;DHT22;61000;48.120;11.548;2023-11-21T09:23:30;8.40;99.90
72865;DHT22;61000;48.120;11.548;2023-11-21T09:25:57;8.30;99.90
72865;DHT22;61000;48.120;11.548;2023-11-21T09:28:26;8.40;99.90
72865;DHT22;61000;48.120;11.548;2023-11-21T09:30:53;8.40;99.90
72865;DHT22;61000;48.120;11.548;2023-11-21T09:33:22;8.30;99.90
72865;DHT22;61000;48.120;11.548;2023-11-21T09:35:50;8.30;99.90
72865;DHT22;61000;48.120;11.548;2023-11-21T09:38:18;8.30;99.90
72865;DHT22;61000;48.120;11.548;2023-11-21T09:40:45;8.40;99.90
72865;DHT22;61000;48.120;11.548;2023-11-21T09:43:16;8.30;99.90
72865;DHT22;61000;48.120;11.548;2023-11-21T09:45:46;8.40;99.90
72865;DHT22;61000;48.120;11.548;2023-11-21T09:48:14;8.40;99.90
72865;DHT22;61000;48.120;11.548;2023-11-21T09:50:43;8.30;99.90
72865;DHT22;61000;48.120;11.548;2023-11-21T09:53:13;8.30;99.90
72865;DHT22;61000;48.120;11.548;2023-11-21T09:55:44;8.20;99.90
72865;DHT22;61000;48.120;11.548;2023-11-21T09:58:12;8.20;99.90
72865;DHT22;61000;48.120;11.548;2023-11-21T10:00:43;8.30;99.90
72865;DHT22;61000;48.120;11.548;2023-11-21T10:03:11;8.20;99.90
72865;DHT22;61000;48.120;11.548;2023-11-21T10:05:38;8.20;99.90
72865;DHT22;61000;48.120;11.548;2023-11-21T10:08:08;8.20;99.90
72865;DHT22;61000;48.120;11.548;2023-11-21T10:10:36;8.30;99.90
72865;DHT22;61000;48.120;11.548;2023-11-21T10:13:05;8.20;99.90
72865;DHT22;61000;48.120;11.548;2023-11-21T10:15:33;8.30;99.90
72865;DHT22;61000;48.120;11.548;2023-11-21T10:18:02;8.40;99.90
72865;DHT22;61000;48.120;11.548;2023-11-21T10:20:31;8.40;99.90
72865;DHT22;61000;48.120;11.548;2023-11-21T10:22:59;8.50;99.90
72865;DHT22;61000;48.120;11.548;2023-11-21T10:25:29;8.60;99.90
72865;DHT22;61000;48.120;11.548;2023-11-21T10:27:59;8.70;99.90
72865;DHT22;61000;48.120;11.548;2023-11-21T10:30:32;8.60;99.90
72865;DHT22;61000;48.120;11.548;2023-11-21T10:33:02;8.60;99.90
72865;DHT22;61000;48.120;11.548;2023-11-21T10:35:42;8.70;99.90
72865;DHT22;61000;48.120;11.548;2023-11-21T10:38:12;8.80;99.90
72865;DHT22;61000;48.120;11.548;2023-11-21T10:40:41;8.70;99.90
72865;DHT22;61000;48.120;11.548;2023-11-21T10:43:10;8.70;99.90
72865;DHT22;61000;48.120;11.548;2023-11-21T10:45:39;8.70;99.90
72865;DHT22;61000;48.120;11.548;2023-11-21T10:48:06;8.70;99.90
72865;DHT22;61000;48.120;11.548;2023-11-21T10:50:34;8.70;99.90
72865;DHT22;61000;48.120;11.548;2023-11-21T10:53:02;8.70;99.90
72865;DHT22;61000;48.120;11.548;2023-11-21T10:55:30;8.70;99.90
72865;DHT22;61000;48.120;11.548;2023-11-21T10:58:00;8.70;99.90
72865;DHT22;61000;48.120;11.548;2023-11-21T11:00:29;8.70;99.90
72865;DHT22;61000;48.120;11.548;2023-11-21T11:02:56;8.90;99.90
72865;DHT22;61000;48.120;11.548;2023-11-21T11:05:25;8.90;99.90
72865;DHT22;61000;48.120;11.548;2023-11-21T11:08:00;9.00;99.90
72865;DHT22;61000;48.120;11.548;2023-11-21T11:10:28;8.90;99.90
72865;DHT22;61000;48.120;11.548;2023-11-21T11:12:56;9.00;99.90
72865;DHT22;61000;48.120;11.548;2023-11-21T11:15:25;9.00;99.90
72865;DHT22;61000;48.120;11.548;2023-11-21T11:17:53;9.00;99.90
72865;DHT22;61000;48.120;11.548;2023-11-21T11:20:23;9.00;99.90
72865;DHT22;61000;48.120;11.548;2023-11-21T11:23:17;9.10;99.90
72865;DHT22;61000;48.120;11.548;2023-11-21T11:26:01;9.30;99.90
72865;DHT22;61000;48.120;11.548;2023-11-21T11:28:38;9.40;99.90
72865;DHT22;61000;48.120;11.548;2023-11-21T11:31:24;9.40;99.90
72865;DHT22;61000;48.120;11.548;2023-11-21T11:33:58;9.40;99.90
72865;DHT22;61000;48.120;11.548;2023-11-21T11:36:29;9.30;99.90
72865;DHT22;61000;48.120;11.548;2023-11-21T11:38:58;9.30;99.90
72865;DHT22;61000;48.120;11.548;2023-11-21T11:41:29;9.20;99.90
72865;DHT22;61000;48.120;11.548;2023-11-21T11:43:58;9.20;99.90
72865;DHT22;61000;48.120;11.548;2023-11-21T11:46:42;9.20;99.90
72865;DHT22;61000;48.120;11.548;2023-11-21T11:49:10;9.20;99.90
72865;DHT22;61000;48.120;11.548;2023-11-21T11:52:33;9.20;99.90
72865;DHT22;61000;48.120;11.548;2023-11-21T11:55:02;9.10;99.90
72865;DHT22;61000;48.120;11.548;2023-11-21T11:57:30;9.10;99.90
72865;DHT22;61000;48.120;11.548;2023-11-21T12:00:17;9.10;99.90
72865;DHT22;61000;48.120;11.548;2023-11-21T12:02:48;9.00;99.90
72865;DHT22;61000;48.120;11.548;2023-11-21T12:05:16;9.00;99.90
72865;DHT22;61000;48.120;11.548;2023-11-21T12:07:45;9.00;99.90
72865;DHT22;61000;48.120;11.548;2023-11-21T12:10:16;9.10;99.90
72865;DHT22;61000;48.120;11.548;2023-11-21T12:12:46;9.10;99.90
72865;DHT22;61000;48.120;11.548;2023-11-21T12:15:13;9.10;99.90
72865;DHT22;61000;48.120;11.548;2023-11-21T12:17:42;9.10;99.90
72865;DHT22;61000;48.120;11.548;2023-11-21T12:20:11;9.20;99.90
72865;DHT22;61000;48.120;11.548;2023-11-21T12:22:47;9.20;99.90
72865;DHT22;61000;48.120;11.548;2023-11-21T12:25:15;9.30;99.90
72865;DHT22;61000;48.120;11.548;2023-11-21T12:27:44;9.40;99.90
72865;DHT22;61000;48.120;11.548;2023-11-21T12:30:13;9.40;99.90
72865;DHT22;61000;48.120;11.548;2023-11-21T12:32:41;9.50;99.90
72865;DHT22;61000;48.120;11.548;2023-11-21T12:35:11;9.40;99.90
72865;DHT22;61000;48.120;11.548;2023-11-21T12:37:38;9.50;99.90
72865;DHT22;61000;48.120;11.548;2023-11-21T12:40:07;9.40;99.90
72865;DHT22;61000;48.120;11.548;2023-11-21T12:42:37;9.50;99.90
72865;DHT22;61000;48.120;11.548;2023-11-21T12:45:18;9.50;99.90
72865;DHT22;61000;48.120;11.548;2023-11-21T12:47:47;9.60;99.90
72865;DHT22;61000;48.120;11.548;2023-11-21T12:50:18;9.60;99.90
72865;DHT22;61000;48.120;11.548;2023-11-21T12:52:50;9.60;99.90
72865;DHT22;61000;48.120;11.548;2023-11-21T12:55:17;9.50;99.90
72865;DHT22;61000;48.120;11.548;2023-11-21T12:57:48;9.40;99.90
72865;DHT22;61000;48.120;11.548;2023-11-21T13:00:18;9.30;99.90
72865;DHT22;61000;48.120;11.548;2023-11-21T13:02:53;9.00;99.90
72865;DHT22;61000;48.120;11.548;2023-11-21T13:05:31;8.70;99.90
72865;DHT22;61000;48.120;11.548;2023-11-21T13:08:02;8.50;99.90
72865;DHT22;61000;48.120;11.548;2023-11-21T13:10:31;8.50;99.90
72865;DHT22;61000;48.120;11.548;2023-11-21T13:13:00;8.40;99.90
72865;DHT22;61000;48.120;11.548;2023-11-21T13:15:31;8.40;99.90
72865;DHT22;61000;48.120;11.548;2023-11-21T13:18:00;8.50;99.90
72865;DHT22;61000;48.120;11.548;2023-11-21T13:20:29;8.50;99.90
72865;DHT22;61000;48.120;11.548;2023-11-21T13:22:57;8.60;99.90
72865;DHT22;61000;48.120;11.548;2023-11-21T13:25:25;8.60;99.90
72865;DHT22;61000;48.120;11.548;2023-11-21T13:27:53;8.60;99.90
72865;DHT22;61000;48.120;11.548;2023-11-21T13:30:20;8.70;99.90
72865;DHT22;61000;48.120;11.548;2023-11-21T13:32:52;8.70;99.90
72865;DHT22;61000;48.120;11.548;2023-11-21T13:35:23;8.70;99.90
72865;DHT22;61000;48.120;11.548;2023-11-21T13:38:02;8.70;99.90
72865;DHT22;61000;48.120;11.548;2023-11-21T13:40:31;8.70;99.90
72865;DHT22;61000;48.120;11.548;2023-11-21T13:43:00;8.70;99.90
72865;DHT22;61000;48.120;11.548;2023-11-21T13:45:30;8.80;99.90
72865;DHT22;61000;48.120;11.548;2023-11-21T13:47:57;8.70;99.90
72865;DHT22;61000;48.120;11.548;2023-11-21T13:50:25;8.80;99.90
72865;DHT22;61000;48.120;11.548;2023-11-21T13:53:00;8.90;99.90
72865;DHT22;61000;48.120;11.548;2023-11-21T13:55:29;8.90;99.90
72865;DHT22;61000;48.120;11.548;2023-11-21T13:57:56;9.00;99.90
72865;DHT22;61000;48.120;11.548;2023-11-21T14:00:25;9.00;99.90
72865;DHT22;61000;48.120;11.548;2023-11-21T14:03:10;8.90;99.90
72865;DHT22;61000;48.120;11.548;2023-11-21T14:05:44;8.70;99.90
72865;DHT22;61000;48.120;11.548;2023-11-21T14:08:14;8.40;99.90
72865;DHT22;61000;48.120;11.548;2023-11-21T14:10:45;8.20;99.90
72865;DHT22;61000;48.120;11.548;2023-11-21T14:13:16;8.10;99.90
72865;DHT22;61000;48.120;11.548;2023-11-21T14:15:43;7.90;99.90
72865;DHT22;61000;48.120;11.548;2023-11-21T14:18:12;7.80;99.90
72865;DHT22;61000;48.120;11.548;2023-11-21T14:20:42;7.70;99.90
72865;DHT22;61000;48.120;11.548;2023-11-21T14:23:10;7.70;99.90
72865;DHT22;61000;48.120;11.548;2023-11-21T14:25:38;7.60;99.90
72865;DHT22;61000;48.120;11.548;2023-11-21T14:28:07;7.50;99.90
72865;DHT22;61000;48.120;11.548;2023-11-21T14:30:37;7.40;99.90
72865;DHT22;61000;48.120;11.548;2023-11-21T14:33:05;7.40;99.90
72865;DHT22;61000;48.120;11.548;2023-11-21T14:35:34;7.40;99.90
72865;DHT22;61000;48.120;11.548;2023-11-21T14:38:01;7.40;99.90
72865;DHT22;61000;48.120;11.548;2023-11-21T14:40:30;7.40;99.90
72865;DHT22;61000;48.120;11.548;2023-11-21T14:43:00;7.40;99.90
72865;DHT22;61000;48.120;11.548;2023-11-21T14:45:28;7.40;99.90
72865;DHT22;61000;48.120;11.548;2023-11-21T14:47:55;7.40;99.90
72865;DHT22;61000;48.120;11.548;2023-11-21T14:50:32;7.40;99.90
72865;DHT22;61000;48.120;11.548;2023-11-21T14:53:54;7.40;99.90
72865;DHT22;61000;48.120;11.548;2023-11-21T14:56:20;7.40;99.90
72865;DHT22;61000;48.120;11.548;2023-11-21T14:58:54;7.40;99.90
72865;DHT22;61000;48.120;11.548;2023-11-21T15:01:23;7.40;99.90
72865;DHT22;61000;48.120;11.548;2023-11-21T15:04:08;7.40;99.90
72865;DHT22;61000;48.120;11.548;2023-11-21T15:06:40;7.40;99.90
72865;DHT22;61000;48.120;11.548;2023-11-21T15:09:08;7.40;99.90
72865;DHT22;61000;48.120;11.548;2023-11-21T15:11:49;7.50;99.90
72865;DHT22;61000;48.120;11.548;2023-11-21T15:14:21;7.40;99.90
72865;DHT22;61000;48.120;11.548;2023-11-21T15:16:50;7.40;99.90
72865;DHT22;61000;48.120;11.548;2023-11-21T15:19:19;7.40;99.90
72865;DHT22;61000;48.120;11.548;2023-11-21T15:21:51;7.40;99.90
72865;DHT22;61000;48.120;11.548;2023-11-21T15:24:18;7.30;99.90
72865;DHT22;61000;48.120;11.548;2023-11-21T15:26:45;7.40;99.90
72865;DHT22;61000;48.120;11.548;2023-11-21T15:29:12;7.40;99.90
72865;DHT22;61000;48.120;11.548;2023-11-21T15:31:41;7.40;99.90
72865;DHT22;61000;48.120;11.548;2023-11-21T15:34:14;7.40;99.90
72865;DHT22;61000;48.120;11.548;2023-11-21T15:36:40;7.40;99.90
72865;DHT22;61000;48.120;11.548;2023-11-21T15:39:07;7.30;99.90